Home > Products > Valid Products > TAF

000
FTUS44 KLCH 240500
TAFAEX
TAF
KAEX 240520Z 2406/2506 05005KT P6SM VCSH SCT020 BKN070
     FM240900 VRB03KT 5SM BR VCSH SCT045
     FM241300 30003KT P6SM SCT035 SCT120
     FM241700 34003KT P6SM VCTS SCT035CB BKN070
     FM250000 VRB03KT P6SM BKN050 BKN100=



000
FTUS44 KLCH 240500
TAFLFT
TAF
KLFT 240520Z 2406/2506 VRB03KT P6SM SCT050 SCT150
     FM241600 35005KT P6SM SCT030 BKN150
     FM250000 23003KT P6SM SCT035 BKN080 BKN150=



000
FTUS44 KLCH 240500
TAFLCH
TAF
KLCH 240520Z 2406/2506 VRB05KT 6SM BR VCTS SCT025 SCT045CB
      TEMPO 2406/2408 VRB15G25KT 2SM TSRA BR BKN025 OVC045CB
     FM240900 VRB03KT 5SM BR VCSH SCT030 BKN070
     FM241400 31003KT P6SM SCT035
     FM241800 VRB04KT P6SM SCT035 SCT070
     FM250000 VRB03KT P6SM SCT060 BKN250=



000
FTUS44 KLCH 240500
TAFBPT
TAF
KBPT 240520Z 2406/2506 VRB03KT P6SM VCTS SCT029 SCT040CB
      TEMPO 2406/2407 VRB15G25KT 2SM TSRA BKN029 OVC040CB
     FM240900 27003KT P6SM VCSH SCT029 BKN060
     FM241500 27005KT P6SM SCT029 BKN060
     FM242000 19007KT P6SM SCT045
     FM250000 25003KT P6SM SCT060 SCT250=



000
FTUS44 KLCH 240500
TAFARA
TAF
KARA 240520Z 2406/2506 13003KT 6SM BR SCT050 SCT150
     FM240700 VRB03KT 3SM BR SCT050 SCT150
     FM241500 32004KT P6SM VCTS SCT030CB BKN150
     FM250000 VRB03KT P6SM SCT035 BKN080 BKN150=



000
FTUS44 KLCH 240400 AAA
TAFLCH
TAF AMD
KLCH 240409Z 2404/2424 VRB05KT 6SM BR VCTS SCT025 SCT045CB
      TEMPO 2405/2407 VRB15G25KT 2SM TSRA BR BKN025 OVC045CB
     FM240800 VRB03KT 5SM BR SCT030
     FM241400 31003KT P6SM SCT035
     FM241800 VRB04KT P6SM SCT035 SCT070=



000
FTUS44 KLCH 240300 AAB
TAFBPT
TAF AMD
KBPT 240320Z 2403/2424 VRB03KT P6SM VCTS SCT029 SCT040CB
      TEMPO 2404/2406 VRB15G25KT 2SM TSRA BKN029 OVC040CB
     FM240900 31003KT P6SM SCT029
     FM242000 18007KT P6SM SCT045=



000
FTUS44 KLCH 240300 AAA
TAFBPT
TAF AMD
KBPT 240318Z 2403/2424 VRB03KT P6SM VCTS SCT029 SCT040CB
      TEMPO 2404/2406 2SM TSRA BKN029 OVC040CB
     FM240900 31003KT P6SM SCT029
     FM242000 18007KT P6SM SCT045=



000
FTUS44 KLCH 240100 AAB
TAFAEX
TAF AMD
KAEX 240112Z 2401/2424 VRB03KT P6SM VCTS SCT030CB BKN060
      TEMPO 2402/2403 VRB15G25KT 1SM +TSRA BR BKN025CB OVC050
     FM240300 VRB03KT P6SM SCT060
     FM240400 34005KT P6SM VCTS SCT030 BKN045CB
      TEMPO 2405/2407 VRB15G25KT 3SM -TSRA BR BKN030 OVC045CB
     FM240900 VRB03KT 5SM BR SCT045
     FM241300 VRB03KT P6SM SCT035 SCT120=



000
FTUS44 KLCH 240000 AAA
TAFAEX
TAF AMD
KAEX 240002Z 2400/2424 VRB03KT P6SM VCTS SCT030CB BKN050
      TEMPO 2401/2402 VRB15G25KT 1SM +TSRA BR BKN025CB OVC050
     FM240200 VRB03KT P6SM SCT060
     FM240400 34005KT P6SM VCTS SCT030 BKN045CB
      TEMPO 2405/2407 VRB15G25KT 3SM -TSRA BR BKN030 OVC045CB
     FM240900 VRB03KT 5SM BR SCT045
     FM241300 VRB03KT P6SM SCT035 SCT120=



000
FTUS44 KLCH 232300
TAFARA
TAF
KARA 232330Z 2400/2424 VRB04KT P6SM VCSH SCT045 BKN050
     FM240100 VRB03KT P6SM SCT050 SCT150
     FM241600 02004KT P6SM VCTS SCT030CB
     FM242100 VRB04KT P6SM VCTS SCT035CB SCT070=



000
FTUS44 KLCH 232300
TAFAEX
TAF
KAEX 232330Z 2400/2424 VRB03KT P6SM VCTS SCT030CB BKN050
     FM240100 VRB03KT P6SM SCT060
     FM240400 34005KT P6SM VCTS SCT030 BKN045CB
      TEMPO 2405/2407 VRB15G25KT 3SM -TSRA BR BKN030 OVC045CB
     FM240900 VRB03KT 5SM BR SCT045
     FM241300 VRB03KT P6SM SCT035 SCT120=



000
FTUS44 KLCH 232300
TAFLFT
TAF
KLFT 232330Z 2400/2424 VRB06KT P6SM SCT030 BKN060
     FM240100 VRB03KT P6SM SCT050 SCT150
     FM241600 35005KT P6SM VCTS SCT030CB=



000
FTUS44 KLCH 232300
TAFBPT
TAF
KBPT 232330Z 2400/2424 19005KT P6SM FEW050
     FM240600 28003KT P6SM VCTS BKN040CB
     FM240900 31003KT P6SM SCT029
     FM242000 18007KT P6SM SCT045=



000
FTUS44 KLCH 232300
TAFLCH
TAF
KLCH 232330Z 2400/2424 VRB03KT P6SM BKN045
     FM240100 VRB03KT P6SM SCT050
     FM240600 VRB03KT P6SM VCTS BKN045CB
     FM240800 34005KT P6SM SCT050
     FM241100 VRB03KT 5SM BR SCT030
     FM241400 34003KT P6SM SCT035
     FM241800 VRB04KT P6SM VCTS SCT035CB SCT070=



000
FTUS44 KLCH 232200 AAA
TAFLCH
TAF AMD
KLCH 232205Z 2322/2418 VRB05KT P6SM SCT035 SCT090
     FM240000 VRB03KT P6SM SCT050
     FM241100 VRB03KT 5SM BR SCT030
     FM241400 34003KT P6SM SCT035=



000
FTUS44 KLCH 232100 AAA
TAFBPT
TAF AMD
KBPT 232155Z 2322/2418 VRB05KT P6SM VCSH SCT035 SCT100
     FM232300 33003KT P6SM FEW050=



000
FTUS44 KLCH 231800 AAA
TAFAEX
TAF AMD
KAEX 231856Z 2319/2418 36005KT P6SM VCTS SCT030CB BKN050
      TEMPO 2319/2320 VRB15G25KT 4SM TSRA BR BKN020CB
     FM240100 00000KT P6SM SCT040 BKN100=



000
FTUS44 KLCH 231700
TAFLCH
TAF
KLCH 231732Z 2318/2418 03005KT P6SM VCSH BKN035
     FM232100 VRB05KT P6SM VCTS SCT030CB BKN050
      TEMPO 2321/2401 VRB10G20KT 2SM +TSRA BKN020CB
     FM240300 00000KT P6SM SCT040 BKN100=



000
FTUS44 KLCH 231700
TAFAEX
TAF
KAEX 231732Z 2318/2418 03005KT P6SM SCT025 BKN035
     FM232000 36005KT P6SM VCTS SCT030CB BKN050
     FM240100 00000KT P6SM SCT040 BKN100=



000
FTUS44 KLCH 231700
TAFARA
TAF
KARA 231732Z 2318/2418 VRB04KT P6SM SCT025 BKN035
     FM232000 VRB04KT P6SM VCTS SCT030CB BKN050
      TEMPO 2320/2324 3SM TSRA BKN035CB
     FM240100 00000KT P6SM SCT040 BKN100=



000
FTUS44 KLCH 231700
TAFLFT
TAF
KLFT 231732Z 2318/2418 03005KT P6SM BKN030
     FM232000 VRB04KT P6SM VCTS SCT030CB BKN050
      TEMPO 2320/2324 3SM TSRA BKN035CB
     FM240100 00000KT P6SM SCT040 BKN100=



000
FTUS44 KLCH 231700
TAFBPT
TAF
KBPT 231732Z 2318/2418 36005KT P6SM VCSH SCT025 BKN035
     FM232100 VRB05KT P6SM VCTS SCT030CB BKN050
      TEMPO 2321/2324 VRB10G20KT 2SM +TSRA BKN020CB
     FM240300 00000KT P6SM SCT040 BKN100=



000
FTUS44 KLCH 231600 AAA
TAFLFT
TAF AMD
KLFT 231650Z 2317/2412 04005KT P6SM BKN025
     FM231900 VRB04KT P6SM VCTS SCT030CB BKN050
      TEMPO 2319/2323 3SM SHRA BKN035
     FM240100 00000KT P6SM SCT040 BKN100=



000
FTUS44 KLCH 231400 AAA
TAFAEX
TAF AMD
KAEX 231431Z 2315/2412 VRB03KT 6SM HZ SCT250
     FM231700 03005KT P6SM VCSH SCT025 BKN035
     FM232100 36005KT P6SM VCTS SCT030CB BKN050
     FM240100 00000KT P6SM SCT040 BKN100=



000
FTUS44 KLCH 231400 AAA
TAFLCH
TAF AMD
KLCH 231429Z 2314/2412 04005KT 5SM HZ FEW025 SCT250
     FM231700 03005KT P6SM VCSH SCT025 BKN035
     FM232100 VRB05KT P6SM VCTS SCT030CB BKN050
      TEMPO 2321/2401 VRB10G20KT 2SM +TSRA BKN020CB
     FM240300 00000KT P6SM SCT040 BKN100=



000
FTUS44 KLCH 231100
TAFLCH
TAF
KLCH 231132Z 2312/2412 VRB03KT 4SM BR FEW025 SCT250
     FM231600 03005KT P6SM VCSH SCT025 BKN035
     FM232100 VRB05KT P6SM VCTS SCT030CB BKN050 PROB30 2321/2401
      VRB10G20KT 2SM +TSRA BKN020CB
     FM240300 00000KT P6SM SCT040 BKN100=



000
FTUS44 KLCH 231100
TAFLFT
TAF
KLFT 231132Z 2312/2412 VRB03KT P6SM FEW025 SCT250
      TEMPO 2312/2313 5SM BR
     FM231400 VRB04KT P6SM VCSH SCT025 BKN035
     FM231900 VRB04KT P6SM VCTS SCT030CB BKN050
      TEMPO 2319/2323 3SM SHRA BKN035
     FM240100 00000KT P6SM SCT040 BKN100=



000
FTUS44 KLCH 231100
TAFARA
TAF
KARA 231132Z 2312/2412 VRB03KT P6SM FEW025 SCT250
      TEMPO 2312/2313 5SM BR
     FM231400 VRB04KT P6SM VCSH SCT025 BKN035
     FM231900 VRB04KT P6SM VCTS SCT030CB BKN050
      TEMPO 2319/2323 3SM SHRA BKN035
     FM240100 00000KT P6SM SCT040 BKN100=



000
FTUS44 KLCH 231100
TAFBPT
TAF
KBPT 231132Z 2312/2412 02004KT P6SM FEW025 SCT250
      TEMPO 2312/2313 5SM BR
     FM231500 36005KT P6SM VCSH SCT025 BKN035
     FM232200 VRB05KT P6SM VCTS SCT030CB BKN050 PROB30 2322/2401
      VRB10G20KT 2SM +TSRA BKN020CB
     FM240300 00000KT P6SM SCT040 BKN100=



000
FTUS44 KLCH 231100
TAFAEX
TAF
KAEX 231132Z 2312/2412 00000KT 4SM BR SCT250
     FM231600 03005KT P6SM VCSH SCT025 BKN035
     FM232100 36005KT P6SM VCTS SCT030CB BKN050
     FM240100 00000KT P6SM SCT040 BKN100=



000
FTUS44 KLCH 230500
TAFLFT
TAF
KLFT 230522Z 2306/2406 VRB03KT P6SM FEW025 BKN250
      TEMPO 2309/2313 4SM BR
     FM231700 VRB05KT P6SM VCTS BKN035CB
      TEMPO 2319/2323 3SM TSRA SCT020 OVC025CB=



000
FTUS44 KLCH 230500
TAFBPT
TAF
KBPT 230522Z 2306/2406 VRB03KT P6SM FEW025 BKN250
      TEMPO 2309/2313 5SM BR
     FM231500 VRB05KT P6SM VCTS SCT025 BKN035CB
      TEMPO 2319/2323 3SM TSRA SCT020 OVC025CB=



000
FTUS44 KLCH 230500
TAFLCH
TAF
KLCH 230522Z 2306/2406 VRB03KT P6SM FEW025 SCT250
      TEMPO 2309/2313 4SM BR
     FM231600 VRB05KT P6SM VCTS SCT025 BKN035CB
      TEMPO 2319/2323 3SM TSRA SCT020 OVC025CB=



000
FTUS44 KLCH 230500
TAFAEX
TAF
KAEX 230522Z 2306/2406 VRB05KT P6SM SCT040 SCT250
      TEMPO 2309/2313 4SM BR
     FM231700 VRB05KT P6SM VCTS SCT030CB BKN250
      TEMPO 2320/2324 VRB15G19KT 3SM TSRA SCT025 OVC030CB=



000
FTUS44 KLCH 230500
TAFARA
TAF
KARA 230522Z 2306/2406 VRB03KT P6SM FEW025 BKN250
      TEMPO 2309/2313 5SM BR
     FM231300 VRB05KT P6SM VCTS BKN035CB
      TEMPO 2319/2323 3SM TSRA SCT020 OVC025CB=



000
FTUS44 KLCH 230100 AAA
TAFAEX
TAF AMD
KAEX 230114Z 2301/2324 VRB05KT P6SM VCSH SCT040 SCT250
      TEMPO 2301/2302 3SM TSRA SCT020 BKN030CB
     FM231700 VRB05KT P6SM VCTS SCT030CB BKN250
      TEMPO 2320/2324 VRB15G19KT 3SM TSRA SCT025 OVC030CB=



000
FTUS44 KLCH 222300
TAFARA
TAF
KARA 222339Z 2300/2324 VRB05KT P6SM VCSH SCT035 SCT250
     FM230400 VRB03KT P6SM FEW025 BKN250
      TEMPO 2309/2313 5SM BR
     FM231300 VRB05KT P6SM VCTS BKN035CB
      TEMPO 2319/2323 3SM TSRA SCT020 OVC025CB=



000
FTUS44 KLCH 222300
TAFLCH
TAF
KLCH 222339Z 2300/2324 VRB05KT P6SM VCSH SCT035 SCT250
     FM230400 VRB03KT P6SM FEW025 BKN250
      TEMPO 2309/2313 4SM BR
     FM231600 VRB05KT P6SM VCTS SCT025 BKN035CB
      TEMPO 2319/2323 3SM TSRA SCT020 OVC025CB=



000
FTUS44 KLCH 222300
TAFAEX
TAF
KAEX 222339Z 2300/2324 VRB05KT P6SM VCSH SCT040 SCT250
      TEMPO 2309/2313 4SM BR
     FM231700 VRB05KT P6SM VCTS SCT030CB BKN250
      TEMPO 2320/2324 VRB15G19KT 3SM TSRA SCT025 OVC030CB=



000
FTUS44 KLCH 222300
TAFLFT
TAF
KLFT 222339Z 2300/2324 02008KT P6SM VCSH SCT035 SCT250
     FM230400 VRB03KT P6SM FEW025 BKN250
      TEMPO 2309/2313 4SM BR
     FM231700 VRB05KT P6SM VCTS BKN035CB
      TEMPO 2319/2323 3SM TSRA SCT020 OVC025CB=



000
FTUS44 KLCH 222300
TAFBPT
TAF
KBPT 222339Z 2300/2324 VRB05KT P6SM VCSH SCT030 SCT250
     FM230300 VRB03KT P6SM FEW025 BKN250
      TEMPO 2309/2313 5SM BR
     FM231500 VRB05KT P6SM VCTS SCT025 BKN035CB
      TEMPO 2319/2323 3SM TSRA SCT020 OVC025CB=



000
FTUS44 KLCH 221700
TAFARA
TAF
KARA 221722Z 2218/2318 VRB05KT P6SM VCSH SCT035 SCT250
     FM230400 VRB03KT P6SM FEW025 BKN250
      TEMPO 2309/2313 5SM BR
     FM231300 VRB05KT P6SM VCTS BKN035CB=



000
FTUS44 KLCH 221700
TAFLFT
TAF
KLFT 221722Z 2218/2318 VRB05KT P6SM VCSH SCT035 SCT250
     FM230400 VRB03KT P6SM FEW025 BKN250
      TEMPO 2309/2313 4SM BR
     FM231300 VRB05KT P6SM VCTS BKN035CB=



000
FTUS44 KLCH 221700
TAFLCH
TAF
KLCH 221722Z 2218/2318 VRB05KT P6SM VCSH SCT035 SCT250
     FM230400 VRB03KT P6SM FEW025 BKN250
      TEMPO 2309/2313 4SM BR
     FM231300 VRB05KT P6SM VCTS BKN035CB=



000
FTUS44 KLCH 221700
TAFAEX
TAF
KAEX 221722Z 2218/2318 VRB05KT P6SM SCT040 SCT250
      TEMPO 2309/2313 4SM BR
     FM231400 VRB05KT P6SM VCSH SCT030 BKN250=



000
FTUS44 KLCH 221700
TAFBPT
TAF
KBPT 221722Z 2218/2318 31007KT P6SM VCSH SCT030 SCT250
     FM222000 20007KT P6SM VCSH SCT035 BKN200
     FM230300 VRB03KT P6SM FEW025 BKN250
      TEMPO 2310/2313 5SM BR
     FM231300 VRB05KT P6SM VCTS BKN035CB=



000
FTUS44 KLCH 221100
TAFLFT
TAF
KLFT 221130Z 2212/2312 34006KT P6SM FEW030
     FM221900 32006KT P6SM VCTS SCT035CB SCT200
     FM230200 VRB03KT P6SM FEW025 BKN200=



000
FTUS44 KLCH 221100
TAFARA
TAF
KARA 221130Z 2212/2312 34006KT P6SM FEW030
     FM221900 32005KT P6SM VCTS SCT035CB SCT200
     FM230200 VRB03KT P6SM FEW025 BKN200=



000
FTUS44 KLCH 221100
TAFBPT
TAF
KBPT 221130Z 2212/2312 VRB03KT 6SM BR SCT035
     FM221400 35005KT P6SM FEW030
     FM221900 26006KT P6SM VCTS SCT035CB SCT200
     FM230200 VRB03KT P6SM FEW025 BKN200=



000
FTUS44 KLCH 221100
TAFLCH
TAF
KLCH 221130Z 2212/2312 VRB03KT 4SM BR SCT025
     FM221400 30005KT P6SM FEW030
     FM221900 27006KT P6SM VCTS SCT035CB SCT200
     FM230200 VRB03KT P6SM FEW025 BKN200=



000
FTUS44 KLCH 221100
TAFAEX
TAF
KAEX 221130Z 2212/2312 VRB03KT 5SM BR SKC
     FM221400 01005KT P6SM SKC=



000
FTUS44 KLCH 220500
TAFAEX
TAF
KAEX 220522Z 2206/2306 VRB05KT P6SM SCT035
     FM220800 VRB03KT 4SM BR SCT015 SCT050
     FM221400 VRB05KT P6SM FEW030 SCT250
     FM221900 VRB05KT P6SM VCTS SCT035CB BKN250=



000
FTUS44 KLCH 220500
TAFLFT
TAF
KLFT 220522Z 2206/2306 VRB03KT P6SM FEW050
     FM220900 VRB03KT 3SM BR FEW003 SCT030
     FM221400 32005KT P6SM FEW030 SCT250
      TEMPO 2219/2223 VRB13G18KT 4SM TSRA SCT025 BKN030CB=



000
FTUS44 KLCH 220500
TAFLCH
TAF
KLCH 220522Z 2206/2306 21005KT P6SM FEW025 BKN040
      TEMPO 2206/2207 VRB10G15KT 5SM TSRA SCT025 BKN030CB OVC040
     FM220800 VRB03KT 4SM BR SCT015 SCT035
     FM221400 30005KT P6SM FEW030
      TEMPO 2220/2224 VRB13G18KT 4SM TSRA SCT025 BKN035CB=



000
FTUS44 KLCH 220500
TAFBPT
TAF
KBPT 220522Z 2206/2306 VRB05KT P6SM SCT035
      TEMPO 2209/2213 5SM BR SCT015 SCT035
     FM221300 28005KT P6SM FEW030 FEW250
      TEMPO 2220/2224 VRB13G18KT 4SM TSRA SCT025 BKN035CB=



000
FTUS44 KLCH 220500
TAFARA
TAF
KARA 220522Z 2206/2306 VRB04KT P6SM FEW050
     FM220900 VRB03KT 3SM BR FEW003 SCT035
     FM221400 33005KT P6SM FEW030
      TEMPO 2219/2223 VRB13G18KT 4SM TSRA SCT025 BKN030CB=



000
FTUS44 KLCH 220400 AAB
TAFLCH
TAF AMD
KLCH 220447Z 2205/2224 21005KT P6SM FEW025 BKN040
      TEMPO 2205/2206 VRB10G15KT 5SM TSRA SCT025 BKN030CB OVC040
     FM220800 VRB03KT 4SM BR SCT015 SCT035
     FM221400 30005KT P6SM FEW030=



000
FTUS44 KLCH 220400 AAA
TAFLCH
TAF AMD
KLCH 220415Z 2204/2224 21005KT P6SM FEW050
      TEMPO 2204/2205 VRB10G15KT 1SM TSRA BKN025CB OVC030
     FM220800 VRB03KT 4SM BR SCT015 SCT035
     FM221400 30005KT P6SM FEW030=



000
FTUS44 KLCH 212300
TAFAEX
TAF
KAEX 212320Z 2200/2224 VRB05KT P6SM SCT035
     FM220800 VRB03KT 4SM BR SCT015 SCT050
     FM221400 VRB05KT P6SM FEW030=



000
FTUS44 KLCH 212300
TAFLCH
TAF
KLCH 212320Z 2200/2224 21005KT P6SM FEW050
     FM220800 VRB03KT 4SM BR SCT015 SCT035
     FM221400 30005KT P6SM FEW030=



000
FTUS44 KLCH 212300
TAFLFT
TAF
KLFT 212320Z 2200/2224 VRB03KT P6SM FEW050
     FM220900 VRB03KT 3SM BR FEW003 SCT030
     FM221400 32005KT P6SM FEW030=



000
FTUS44 KLCH 212300
TAFBPT
TAF
KBPT 212320Z 2200/2224 VRB05KT P6SM SCT035
      TEMPO 2209/2213 5SM BR SCT015 SCT035
     FM221300 28005KT P6SM FEW030=



000
FTUS44 KLCH 212300
TAFARA
TAF
KARA 212320Z 2200/2224 VRB04KT P6SM FEW050
     FM220900 VRB03KT 3SM BR FEW003 SCT035
     FM221400 33005KT P6SM FEW030=



000
FTUS44 KLCH 211700
TAFAEX
TAF
KAEX 211727Z 2118/2218 VRB05KT P6SM SCT035
     FM220800 VRB03KT 4SM BR SCT015
     FM221400 VRB05KT P6SM FEW030=



000
FTUS44 KLCH 211700
TAFLFT
TAF
KLFT 211727Z 2118/2218 VRB05KT P6SM VCSH SCT030
     FM220000 VRB03KT P6SM FEW050
     FM220900 VRB03KT 3SM BR SCT012
     FM221400 32005KT P6SM FEW030=



000
FTUS44 KLCH 211700
TAFLCH
TAF
KLCH 211727Z 2118/2218 VRB05KT P6SM VCSH SCT030
     FM212300 21005KT P6SM FEW050
     FM220800 VRB03KT 4SM BR SCT015
     FM221400 30005KT P6SM FEW030=



000
FTUS44 KLCH 211700
TAFARA
TAF
KARA 211727Z 2118/2218 VRB05KT P6SM VCSH SCT030
     FM220000 VRB04KT P6SM FEW050
     FM220900 VRB03KT 3SM BR SCT012
     FM221400 33005KT P6SM FEW030=



000
FTUS44 KLCH 211700
TAFBPT
TAF
KBPT 211727Z 2118/2218 VRB05KT P6SM SCT035
      TEMPO 2209/2213 5SM BR SCT015
     FM221300 28005KT P6SM FEW030=



000
FTUS44 KLCH 211500 AAA
TAFLCH
TAF AMD
KLCH 211545Z 2116/2212 24006KT P6SM VCSH SCT030
      TEMPO 2116/2117 3SM -SHRA SCT015 BKN030
     FM212300 VRB03KT P6SM FEW050=



000
FTUS44 KLCH 211100
TAFLFT
TAF
KLFT 211120Z 2112/2212 VRB03KT P6SM SCT003 BKN030
      TEMPO 2112/2114 2SM BR BKN003
     FM211600 30007KT P6SM SCT030
     FM220100 VRB03KT P6SM SKC=



000
FTUS44 KLCH 211100
TAFBPT
TAF
KBPT 211120Z 2112/2212 VRB03KT P6SM FEW025
      TEMPO 2112/2114 2SM BR
     FM211400 21007KT P6SM SCT035=



000
FTUS44 KLCH 211100
TAFAEX
TAF
KAEX 211120Z 2112/2212 VRB03KT P6SM SKC
      TEMPO 2112/2114 5SM BR
     FM211600 35005KT P6SM SCT035
     FM220000 VRB03KT P6SM SKC=



000
FTUS44 KLCH 211100
TAFLCH
TAF
KLCH 211120Z 2112/2212 00000KT P6SM SCT070
      TEMPO 2112/2114 2SM BR
     FM211400 24006KT P6SM SCT030
     FM212300 VRB03KT P6SM FEW050=



000
FTUS44 KLCH 211100
TAFARA
TAF
KARA 211120Z 2112/2212 00000KT P6SM FEW007 BKN050
      TEMPO 2112/2114 2SM BR
     FM211600 30007KT P6SM SCT030
     FM220100 VRB03KT P6SM SKC=



000
FTUS44 KLCH 210900 AAA
TAFBPT
TAF AMD
KBPT 210917Z 2109/2206 VRB03KT 3SM BR FEW025
      TEMPO 2109/2113 1/2SM FG
     FM211300 22003KT P6SM BKN035
     FM211700 21006KT P6SM SCT030=



000
FTUS44 KLCH 210900 AAA
TAFLCH
TAF AMD
KLCH 210916Z 2109/2206 VRB03KT 6SM BR BKN070
      TEMPO 2109/2113 1SM BR
     FM211300 24003KT P6SM SCT029
     FM220000 14003KT P6SM FEW050=



    US Dept of Commerce
    National Oceanic and Atmospheric Administration
    National Weather Service
    1325 East West Highway
    Silver Spring, MD 20910
    Page Author: NWS Internet Services Team
Disclaimer
Information Quality
Credits
Glossary
Privacy Policy
Freedom of Information Act (FOIA)
About Us
Career Opportunities